Aidablu — IBWX — position and weather

sailwx.info

Track history (hours):
 
Tides and Currents Weather Stations Pressure Air Temp Water Temp Dewpoint Dewpoint Depression Visibility Wind Speed Wind Dir Waves Ship Positions

Aidablu

Last reported at 2014-Sep-21 13:33 UTC. Time now 2014-Sep-21 14:07 UTC.
Position N 39°12' E 009°06'.

Length 252 m; draft 7.3 m.

Type: Ship. MMSI: 247282500.

Date/timePositionNaut miles runAvg speedWind from/ knotsBaromVisibWave heightAir tempDewpointWater temp
2014-Sep-21 13:33N 39°12' E 009°06'0 0.0
2014-Sep-21 12:33N 39°12' E 009°06'0 0.0
2014-Sep-21 11:32N 39°12' E 009°06'0 0.0
2014-Sep-21 10:32N 39°12' E 009°06'0 0.0
2014-Sep-21 09:31N 39°12' E 009°06'0 0.0
2014-Sep-21 08:31N 39°12' E 009°06'0 0.0
2014-Sep-21 07:31N 39°12' E 009°06'0 0.0
2014-Sep-21 06:33N 39°12' E 009°06'0 0.1
2014-Sep-21 05:33N 39°12' E 009°06'5 5.1
2014-Sep-21 04:33N 39°07' E 009°07'1111.4
2014-Sep-21 03:33N 38°56' E 009°04'1312.7
2014-Sep-21 02:32N 38°47' E 008°52'19 9.8
2014-Sep-21 00:33N 38°47' E 008°27'31 6.2
2014-Sep-20 19:33N 38°50' E 007°48'7 5.6
2014-Sep-20 18:18N 38°51' E 007°39'11 5.3
2014-Sep-20 16:10N 38°52' E 007°25'9111.5
2014-Sep-20 08:17N 39°02' E 005°29'6012.3
2014-Sep-20 03:26N 39°08' E 004°12'1112.7
2014-Sep-20 02:33N 39°09' E 003°58'1312.8
2014-Sep-20 01:33N 39°11' E 003°41'1312.9
2014-Sep-20 00:33N 39°12' E 003°25'1313.2
2014-Sep-19 23:33N 39°13' E 003°08'1312.8
2014-Sep-19 22:33N 39°17' E 002°52'1212.2
2014-Sep-19 21:33N 39°26' E 002°41'7 7.2
2014-Sep-19 20:33N 39°33' E 002°38'0 0.0
2014-Sep-19 19:32N 39°33' E 002°38'0 0.0
2014-Sep-19 17:31N 39°33' E 002°38'0 0.0
2014-Sep-19 16:28N 39°33' E 002°38'0 0.0
2014-Sep-19 15:31N 39°33' E 002°38'0 0.0
2014-Sep-19 14:33N 39°33' E 002°38'0 0.0
2014-Sep-19 13:33N 39°33' E 002°38'0 0.0
2014-Sep-19 12:29N 39°33' E 002°38'118 6.1
2014-Sep-18 17:09N 39°25' E 000°06'913.7
2014-Sep-18 16:31N 39°25' W 000°05'1010.3
2014-Sep-18 15:30N 39°26' W 000°19'1 1.1
2014-Sep-18 14:18N 39°27' W 000°20'0 0.0
2014-Sep-18 13:33N 39°27' W 000°20'0 0.0
2014-Sep-18 12:32N 39°27' W 000°20'0 0.0
2014-Sep-18 11:29N 39°27' W 000°20'0 0.0
2014-Sep-18 10:31N 39°27' W 000°20'0 0.0
2014-Sep-18 05:33N 39°27' W 000°19'8 7.9
2014-Sep-18 04:33N 39°22' W 000°11'52 2.5
2014-Sep-17 07:21N 38°31' E 000°02'1312.7
2014-Sep-17 06:22N 38°38' E 000°16'12412.1
2014-Sep-16 20:10N 39°33' E 002°39'1 0.0
2014-Sep-16 04:04N 39°33' E 002°38'0 0.2
2014-Sep-16 02:30N 39°33' E 002°38'1010.2
2014-Sep-16 01:32N 39°25' E 002°31'3012.3
2014-Sep-15 23:06N 39°52' E 002°13'1514.6
2014-Sep-15 22:03N 40°07' E 002°13'914.1
2014-Sep-15 21:27N 40°16' E 002°12'1514.3
2014-Sep-15 20:25N 40°31' E 002°12'1414.3
2014-Sep-15 19:27N 40°45' E 002°12'38 2.3
2014-Sep-15 03:05N 41°18' E 002°33'42 8.5
2014-Sep-14 22:09N 41°23' E 003°28'14 7.5
2014-Sep-14 20:18N 41°25' E 003°47'5 6.8
2014-Sep-14 19:33N 41°25' E 003°54'7 6.4
2014-Sep-14 18:26N 41°26' E 004°03'6 5.8
2014-Sep-14 17:26N 41°27' E 004°11'7 5.3
2014-Sep-14 16:11N 41°28' E 004°19'6 5.4
2014-Sep-14 15:05N 41°28' E 004°27'11 6.3
2014-Sep-14 13:23N 41°29' E 004°42'28 7.4
2014-Sep-14 09:32N 41°33' E 005°19'212 5.7
2014-Sep-12 20:13N 43°11' E 009°33'913.4
2014-Sep-12 19:33N 43°15' E 009°45'1313.4
2014-Sep-12 18:34N 43°21' E 010°01'1413.6
2014-Sep-12 17:33N 43°31' E 010°13'4 3.8
2014-Sep-12 16:34N 43°33' E 010°18'0 0.0
2014-Sep-12 15:30N 43°33' E 010°18'0 0.0
2014-Sep-12 14:33N 43°33' E 010°18'0 0.0
2014-Sep-12 13:32N 43°33' E 010°18'0 0.0
2014-Sep-12 12:32N 43°33' E 010°18'0 0.0
2014-Sep-12 11:31N 43°33' E 010°18'0 0.0
2014-Sep-12 10:16N 43°33' E 010°18'0 0.0
2014-Sep-12 09:33N 43°33' E 010°18'0 0.0
2014-Sep-12 08:30N 43°33' E 010°18'0 0.0
2014-Sep-12 07:33N 43°33' E 010°18'0 0.0
2014-Sep-12 06:32N 43°33' E 010°18'0 0.0
2014-Sep-12 05:33N 43°33' E 010°18'5 5.4
2014-Sep-12 04:33N 43°29' E 010°13'1313.3
2014-Sep-12 03:33N 43°16' E 010°09'1313.0
2014-Sep-12 02:33N 43°03' E 010°06'2711.5
2014-Sep-12 00:11N 42°37' E 010°14'  
Track history (hours):
 
Tides and Currents Weather Stations Pressure Air Temp Water Temp Dewpoint Dewpoint Depression Visibility Wind Speed Wind Dir Waves Ship Positions

Aidablu

Last reported at 2014-Sep-21 13:33 UTC. Time now 2014-Sep-21 14:07 UTC.
Position N 39°12' E 009°06'.

Length 252 m; draft 7.3 m.

Type: Ship. MMSI: 247282500.

Date/timePositionNaut miles runAvg speedWind from/ knotsBaromVisibWave heightAir tempDewpointWater temp
2014-Sep-21 13:33N 39°12' E 009°06'0 0.0
2014-Sep-21 12:33N 39°12' E 009°06'0 0.0
2014-Sep-21 11:32N 39°12' E 009°06'0 0.0
2014-Sep-21 10:32N 39°12' E 009°06'0 0.0
2014-Sep-21 09:31N 39°12' E 009°06'0 0.0
2014-Sep-21 08:31N 39°12' E 009°06'0 0.0
2014-Sep-21 07:31N 39°12' E 009°06'0 0.0
2014-Sep-21 06:33N 39°12' E 009°06'0 0.1
2014-Sep-21 05:33N 39°12' E 009°06'5 5.1
2014-Sep-21 04:33N 39°07' E 009°07'1111.4
2014-Sep-21 03:33N 38°56' E 009°04'1312.7
2014-Sep-21 02:32N 38°47' E 008°52'19 9.8
2014-Sep-21 00:33N 38°47' E 008°27'31 6.2
2014-Sep-20 19:33N 38°50' E 007°48'7 5.6
2014-Sep-20 18:18N 38°51' E 007°39'11 5.3
2014-Sep-20 16:10N 38°52' E 007°25'9111.5
2014-Sep-20 08:17N 39°02' E 005°29'6012.3
2014-Sep-20 03:26N 39°08' E 004°12'1112.7
2014-Sep-20 02:33N 39°09' E 003°58'1312.8
2014-Sep-20 01:33N 39°11' E 003°41'1312.9
2014-Sep-20 00:33N 39°12' E 003°25'1313.2
2014-Sep-19 23:33N 39°13' E 003°08'1312.8
2014-Sep-19 22:33N 39°17' E 002°52'1212.2
2014-Sep-19 21:33N 39°26' E 002°41'7 7.2
2014-Sep-19 20:33N 39°33' E 002°38'0 0.0
2014-Sep-19 19:32N 39°33' E 002°38'0 0.0
2014-Sep-19 17:31N 39°33' E 002°38'0 0.0
2014-Sep-19 16:28N 39°33' E 002°38'0 0.0
2014-Sep-19 15:31N 39°33' E 002°38'0 0.0
2014-Sep-19 14:33N 39°33' E 002°38'0 0.0
2014-Sep-19 13:33N 39°33' E 002°38'0 0.0
2014-Sep-19 12:29N 39°33' E 002°38'118 6.1
2014-Sep-18 17:09N 39°25' E 000°06'913.7
2014-Sep-18 16:31N 39°25' W 000°05'1010.3
2014-Sep-18 15:30N 39°26' W 000°19'1 1.1
2014-Sep-18 14:18N 39°27' W 000°20'0 0.0
2014-Sep-18 13:33N 39°27' W 000°20'0 0.0
2014-Sep-18 12:32N 39°27' W 000°20'0 0.0
2014-Sep-18 11:29N 39°27' W 000°20'0 0.0
2014-Sep-18 10:31N 39°27' W 000°20'0 0.0
2014-Sep-18 05:33N 39°27' W 000°19'8 7.9
2014-Sep-18 04:33N 39°22' W 000°11'52 2.5
2014-Sep-17 07:21N 38°31' E 000°02'1312.7
2014-Sep-17 06:22N 38°38' E 000°16'12412.1
2014-Sep-16 20:10N 39°33' E 002°39'1 0.0
2014-Sep-16 04:04N 39°33' E 002°38'0 0.2
2014-Sep-16 02:30N 39°33' E 002°38'1010.2
2014-Sep-16 01:32N 39°25' E 002°31'3012.3
2014-Sep-15 23:06N 39°52' E 002°13'1514.6
2014-Sep-15 22:03N 40°07' E 002°13'914.1
2014-Sep-15 21:27N 40°16' E 002°12'1514.3
2014-Sep-15 20:25N 40°31' E 002°12'1414.3
2014-Sep-15 19:27N 40°45' E 002°12'38 2.3
2014-Sep-15 03:05N 41°18' E 002°33'42 8.5
2014-Sep-14 22:09N 41°23' E 003°28'14 7.5
2014-Sep-14 20:18N 41°25' E 003°47'5 6.8
2014-Sep-14 19:33N 41°25' E 003°54'7 6.4
2014-Sep-14 18:26N 41°26' E 004°03'6 5.8
2014-Sep-14 17:26N 41°27' E 004°11'7 5.3
2014-Sep-14 16:11N 41°28' E 004°19'6 5.4
2014-Sep-14 15:05N 41°28' E 004°27'11 6.3
2014-Sep-14 13:23N 41°29' E 004°42'28 7.4
2014-Sep-14 09:32N 41°33' E 005°19'212 5.7
2014-Sep-12 20:13N 43°11' E 009°33'913.4
2014-Sep-12 19:33N 43°15' E 009°45'1313.4
2014-Sep-12 18:34N 43°21' E 010°01'1413.6
2014-Sep-12 17:33N 43°31' E 010°13'4 3.8
2014-Sep-12 16:34N 43°33' E 010°18'0 0.0
2014-Sep-12 15:30N 43°33' E 010°18'0 0.0
2014-Sep-12 14:33N 43°33' E 010°18'0 0.0
2014-Sep-12 13:32N 43°33' E 010°18'0 0.0
2014-Sep-12 12:32N 43°33' E 010°18'0 0.0
2014-Sep-12 11:31N 43°33' E 010°18'0 0.0
2014-Sep-12 10:16N 43°33' E 010°18'0 0.0
2014-Sep-12 09:33N 43°33' E 010°18'0 0.0
2014-Sep-12 08:30N 43°33' E 010°18'0 0.0
2014-Sep-12 07:33N 43°33' E 010°18'0 0.0
2014-Sep-12 06:32N 43°33' E 010°18'0 0.0
2014-Sep-12 05:33N 43°33' E 010°18'5 5.4
2014-Sep-12 04:33N 43°29' E 010°13'1313.3
2014-Sep-12 03:33N 43°16' E 010°09'1313.0
2014-Sep-12 02:33N 43°03' E 010°06'2711.5
2014-Sep-12 00:11N 42°37' E 010°14'  

Dump ship's entire track history